Terminal Aerodrome Forecast
Issued by NWS Tulsa, OK

Home | Current Version | Previous Version | Text Only | Print | Product List | Glossary On
Versions: 1 2 3 4 5 6 7 8 9 10 11 12 13 14 15
000
FTUS44 KTSA 262329
TAFFSM
TAF
KFSM 262329Z 2700/2724 VRB03KT P6SM VCTS SCT040CB BKN250
     FM270100 07002KT P6SM BKN100
      TEMPO 2709/2713 4SM BR
     FM271500 08003KT P6SM SCT035 BKN250
     FM271900 12005KT P6SM VCTS BKN050CB=

USA.gov is the U.S. government's official web portal to all federal, state and local government web resources and services.